SVRN weather

El Terrón Airport
Monagas, Venezuela

Public forecast

Using degrees Celsius for public forecast. Weather courtesy of forecast.io.

Closest aviation weather report (METAR) to El Terrón Airport

Report is more than 6 hours old.

Closest report is Maturín Airport, 23.4 nm (43.3 km) NNE. Retrieved 2018/12/04 12:00 UTC (11 months ago):

SVMT 041200Z /////KT 9999 SCT010 BKN300 23/22 Q1011

Closest aviation forecast (TAF) to El Terrón Airport

Closest forecast is General José Antonio Anzoategui International Airport, 95.0 nm (175.9 km) WNW. Retrieved 2019/10/22 12:03 UTC (3 hours ago):

TAF TAF SVBC 221000Z 2212/2312 00000KT 9999 FEW010 TX33/19Z TN24/08Z BECMG 2214/2018 07006KT SCT010